Time;durP1;ratioP1;P1;durP2;ratioP2;P2;SDS_P1;SDS_P2;PMS_P1;PMS_P2;Temp;Humidity;BMP_temperature;BMP_pressure;BME280_temperature;BME280_humidity;BME280_pressure;Samples;Min_cycle;Max_cycle;Signal;HPM_P1;HPM_P2
2022/03/10 00:02:10;;;;;;;17.98;13.95;;;;;;;;;;4941381;29;20405;-71
2022/03/10 00:04:36;;;;;;;19.60;14.68;;;;;;;;;;4935783;29;20028;-71
2022/03/10 00:07:03;;;;;;;20.75;14.80;;;;;;;;;;4924041;29;20032;-71
2022/03/10 00:09:30;;;;;;;21.13;15.07;;;;;;;;;;4935989;29;20024;-69
2022/03/10 00:11:56;;;;;;;47.20;29.55;;;;;;;;;;4941918;29;20028;-70
2022/03/10 00:14:22;;;;;;;23.42;16.30;;;;;;;;;;4942274;29;20565;-70
2022/03/10 00:16:51;;;;;;;21.88;15.60;;;;;;;;;;4924739;29;20492;-71
2022/03/10 00:19:19;;;;;;;30.50;20.95;;;;;;;;;;4939362;29;20039;-71
2022/03/10 00:21:48;;;;;;;25.02;18.35;;;;;;;;;;4941165;29;20070;-71
2022/03/10 00:24:18;;;;;;;18.80;14.02;;;;;;;;;;4939574;29;20043;-71
2022/03/10 00:26:44;;;;;;;19.60;14.85;;;;;;;;;;4939621;29;20486;-71
2022/03/10 00:29:10;;;;;;;22.15;14.73;;;;;;;;;;4939530;29;20442;-70
2022/03/10 00:31:40;;;;;;;21.02;15.93;;;;;;;;;;4940070;29;20028;-70
2022/03/10 00:34:09;;;;;;;21.35;15.15;;;;;;;;;;4944734;29;20398;-71
2022/03/10 00:36:36;;;;;;;20.40;15.35;;;;;;;;;;4939702;29;20038;-70
2022/03/10 00:39:03;;;;;;;20.73;16.08;;;;;;;;;;4940101;29;20490;-70
2022/03/10 00:41:29;;;;;;;22.38;15.45;;;;;;;;;;4941915;29;20063;-71
2022/03/10 00:43:55;;;;;;;22.95;16.50;;;;;;;;;;4923764;29;20032;-71
2022/03/10 00:46:21;;;;;;;19.90;14.75;;;;;;;;;;4941930;29;20016;-71
2022/03/10 00:48:47;;;;;;;19.40;14.90;;;;;;;;;;4944993;29;20046;-71
2022/03/10 00:51:16;;;;;;;17.83;13.25;;;;;;;;;;4940959;29;20032;-71
2022/03/10 00:53:44;;;;;;;18.02;14.27;;;;;;;;;;4922229;29;20413;-71
2022/03/10 00:56:10;;;;;;;20.98;14.75;;;;;;;;;;4914151;29;20044;-71
2022/03/10 00:58:36;;;;;;;20.58;14.65;;;;;;;;;;4941415;29;20032;-71
2022/03/10 01:01:04;;;;;;;21.65;16.02;;;;;;;;;;4940160;29;20023;-71
2022/03/10 01:03:30;;;;;;;19.77;14.60;;;;;;;;;;4937531;29;20024;-71
2022/03/10 01:05:59;;;;;;;20.65;16.55;;;;;;;;;;4939293;29;20041;-71
2022/03/10 01:08:27;;;;;;;23.50;16.25;;;;;;;;;;4938786;29;20024;-70
2022/03/10 01:10:56;;;;;;;22.52;16.50;;;;;;;;;;4941575;29;20110;-71
2022/03/10 01:13:22;;;;;;;25.17;17.75;;;;;;;;;;4940787;29;20031;-71
2022/03/10 01:15:49;;;;;;;24.25;17.08;;;;;;;;;;4939965;29;20437;-71
2022/03/10 01:18:16;;;;;;;24.48;17.33;;;;;;;;;;4941861;29;20442;-73
2022/03/10 01:20:42;;;;;;;22.80;16.98;;;;;;;;;;4946954;29;20207;-75
2022/03/10 01:23:12;;;;;;;25.08;17.58;;;;;;;;;;4945383;29;20027;-71
2022/03/10 01:25:38;;;;;;;21.33;16.58;;;;;;;;;;4941955;29;20405;-71
2022/03/10 01:28:09;;;;;;;20.38;14.98;;;;;;;;;;4941372;29;20039;-71
2022/03/10 01:30:39;;;;;;;20.10;13.73;;;;;;;;;;4938612;29;20039;-71
2022/03/10 01:33:05;;;;;;;16.10;12.85;;;;;;;;;;4940200;29;20130;-71
2022/03/10 01:35:31;;;;;;;18.23;13.60;;;;;;;;;;4939654;29;20050;-71
2022/03/10 01:37:57;;;;;;;17.73;14.07;;;;;;;;;;4938826;29;20539;-70
2022/03/10 01:40:23;;;;;;;16.90;13.20;;;;;;;;;;4938064;29;20083;-71
2022/03/10 01:42:52;;;;;;;16.90;13.85;;;;;;;;;;4939258;29;20477;-71
2022/03/10 01:45:21;;;;;;;19.70;13.68;;;;;;;;;;4940968;29;20478;-73
2022/03/10 01:47:47;;;;;;;19.23;14.05;;;;;;;;;;4944880;29;20023;-71
2022/03/10 01:50:14;;;;;;;20.10;14.38;;;;;;;;;;4937141;29;20031;-70
2022/03/10 01:52:41;;;;;;;18.80;13.68;;;;;;;;;;4943562;29;20024;-70
2022/03/10 01:55:09;;;;;;;18.40;14.30;;;;;;;;;;4938476;29;20114;-70
2022/03/10 01:57:38;;;;;;;19.75;14.82;;;;;;;;;;4938776;29;20098;-71
2022/03/10 02:00:05;;;;;;;20.75;14.98;;;;;;;;;;4940147;29;20157;-71
2022/03/10 02:02:31;;;;;;;21.10;15.80;;;;;;;;;;4939514;29;20143;-70
2022/03/10 02:04:57;;;;;;;19.05;14.73;;;;;;;;;;4910653;29;20405;-71
2022/03/10 02:10:17;;;;;;;21.35;15.20;;;;;;;;;;4938852;29;20087;-70
2022/03/10 02:12:48;;;;;;;21.30;15.50;;;;;;;;;;4938998;29;20082;-71
2022/03/10 02:18:02;;;;;;;18.50;14.18;;;;;;;;;;4939017;29;20468;-71
2022/03/10 02:20:29;;;;;;;19.98;14.65;;;;;;;;;;4937440;29;20537;-71
2022/03/10 02:22:55;;;;;;;18.65;14.38;;;;;;;;;;4921295;29;20027;-70
2022/03/10 02:25:22;;;;;;;21.85;14.45;;;;;;;;;;4934987;29;20032;-70
2022/03/10 02:27:52;;;;;;;19.83;15.15;;;;;;;;;;4939249;29;20056;-70
2022/03/10 02:30:23;;;;;;;20.15;14.68;;;;;;;;;;4937380;29;20032;-70
2022/03/10 02:32:49;;;;;;;19.60;14.95;;;;;;;;;;4933061;29;20035;-70
2022/03/10 02:35:15;;;;;;;18.02;14.43;;;;;;;;;;4934604;29;20447;-70
2022/03/10 02:37:44;;;;;;;20.80;15.25;;;;;;;;;;4938515;29;20043;-70
2022/03/10 02:40:10;;;;;;;18.40;13.75;;;;;;;;;;4937790;29;20078;-70
2022/03/10 02:42:36;;;;;;;20.92;14.90;;;;;;;;;;4939856;29;20028;-70
2022/03/10 02:45:03;;;;;;;18.42;13.82;;;;;;;;;;4939215;29;20374;-70
2022/03/10 02:47:29;;;;;;;18.60;14.23;;;;;;;;;;4939137;29;20028;-70
2022/03/10 02:49:55;;;;;;;19.83;14.77;;;;;;;;;;4936367;29;20032;-70
2022/03/10 02:52:21;;;;;;;19.77;13.82;;;;;;;;;;4939094;29;20035;-70
2022/03/10 02:54:48;;;;;;;20.58;15.30;;;;;;;;;;4939344;29;20063;-70
2022/03/10 02:57:14;;;;;;;20.65;16.00;;;;;;;;;;4939377;29;20024;-70
2022/03/10 02:59:41;;;;;;;24.73;17.63;;;;;;;;;;4944624;29;20127;-70
2022/03/10 03:02:07;;;;;;;24.50;15.93;;;;;;;;;;4940696;29;20050;-69
2022/03/10 03:04:33;;;;;;;26.08;18.10;;;;;;;;;;4946735;29;20111;-70
2022/03/10 03:06:59;;;;;;;25.63;18.80;;;;;;;;;;4942048;29;20036;-71
2022/03/10 03:09:25;;;;;;;22.10;16.15;;;;;;;;;;4943939;29;20024;-70
2022/03/10 03:11:51;;;;;;;27.17;19.70;;;;;;;;;;4941240;29;20035;-70
2022/03/10 03:14:22;;;;;;;26.30;18.80;;;;;;;;;;4941907;29;20024;-71
2022/03/10 03:16:50;;;;;;;26.48;19.38;;;;;;;;;;4924254;29;20063;-71
2022/03/10 03:19:16;;;;;;;25.35;18.42;;;;;;;;;;4907610;29;20036;-70
2022/03/10 03:21:42;;;;;;;28.42;19.77;;;;;;;;;;4924449;29;20203;-70
2022/03/10 03:24:08;;;;;;;27.20;20.05;;;;;;;;;;4927004;29;20038;-71
2022/03/10 03:26:34;;;;;;;26.42;19.23;;;;;;;;;;4926168;29;20075;-71
2022/03/10 03:29:02;;;;;;;28.25;19.75;;;;;;;;;;4923314;29;20032;-70
2022/03/10 03:31:28;;;;;;;30.83;20.42;;;;;;;;;;4922678;29;20047;-70
2022/03/10 03:33:54;;;;;;;29.90;21.08;;;;;;;;;;4935420;29;20529;-70
2022/03/10 03:36:20;;;;;;;24.30;17.85;;;;;;;;;;4940200;29;20028;-70
2022/03/10 03:38:46;;;;;;;26.80;19.83;;;;;;;;;;4940849;29;20079;-70
2022/03/10 03:41:12;;;;;;;30.13;21.58;;;;;;;;;;4941773;29;20039;-70
2022/03/10 03:43:39;;;;;;;29.60;20.90;;;;;;;;;;4941324;29;20102;-70
2022/03/10 03:46:05;;;;;;;25.15;17.30;;;;;;;;;;4941648;29;20046;-70
2022/03/10 03:48:31;;;;;;;29.17;21.23;;;;;;;;;;4940748;29;20099;-70
2022/03/10 03:50:58;;;;;;;31.25;21.60;;;;;;;;;;4940827;29;20051;-70
2022/03/10 03:53:24;;;;;;;29.75;22.10;;;;;;;;;;4940476;29;20043;-71
2022/03/10 03:55:50;;;;;;;30.40;22.52;;;;;;;;;;4941636;29;20106;-70
2022/03/10 03:58:16;;;;;;;30.55;22.30;;;;;;;;;;4923429;29;20039;-70
2022/03/10 04:00:42;;;;;;;28.75;20.33;;;;;;;;;;4940837;29;20036;-70
2022/03/10 04:03:12;;;;;;;27.58;20.52;;;;;;;;;;4931637;29;20607;-71
2022/03/10 04:05:41;;;;;;;28.60;20.70;;;;;;;;;;4940689;29;20098;-70
2022/03/10 04:08:07;;;;;;;29.55;21.35;;;;;;;;;;4940940;29;20051;-70
2022/03/10 04:10:33;;;;;;;31.85;22.33;;;;;;;;;;4940726;29;20023;-71
2022/03/10 04:13:00;;;;;;;26.05;18.35;;;;;;;;;;4941785;29;20103;-70
2022/03/10 04:15:26;;;;;;;28.27;20.13;;;;;;;;;;4942170;29;20024;-70
2022/03/10 04:17:52;;;;;;;27.10;19.98;;;;;;;;;;4943341;29;20024;-71
2022/03/10 04:20:18;;;;;;;27.77;20.05;;;;;;;;;;4939394;29;20047;-71
2022/03/10 04:22:44;;;;;;;26.63;20.08;;;;;;;;;;4940880;29;20462;-70
2022/03/10 04:25:10;;;;;;;26.90;17.63;;;;;;;;;;4941466;28;20119;-70
2022/03/10 04:27:37;;;;;;;26.23;20.48;;;;;;;;;;4939940;29;20070;-70
2022/03/10 04:30:04;;;;;;;27.70;20.42;;;;;;;;;;4931254;29;20055;-71
2022/03/10 04:32:30;;;;;;;27.65;19.15;;;;;;;;;;4927423;29;20012;-70
2022/03/10 04:34:56;;;;;;;29.52;20.75;;;;;;;;;;4936277;29;20573;-70
2022/03/10 04:37:22;;;;;;;30.23;19.80;;;;;;;;;;4928340;29;20036;-70
2022/03/10 04:39:48;;;;;;;25.80;18.58;;;;;;;;;;4914226;29;20047;-70
2022/03/10 04:42:14;;;;;;;28.30;19.67;;;;;;;;;;4939545;29;20518;-70
2022/03/10 04:44:40;;;;;;;27.65;20.05;;;;;;;;;;4944604;29;20000;-70
2022/03/10 04:47:06;;;;;;;30.42;20.08;;;;;;;;;;4904963;29;20519;-70
2022/03/10 04:49:32;;;;;;;27.35;20.88;;;;;;;;;;4937800;29;20081;-70
2022/03/10 04:51:58;;;;;;;27.35;20.05;;;;;;;;;;4922396;29;20087;-70
2022/03/10 04:54:24;;;;;;;27.73;19.45;;;;;;;;;;4931988;29;20032;-70
2022/03/10 04:56:52;;;;;;;26.25;18.77;;;;;;;;;;4939644;29;20482;-71
2022/03/10 04:59:18;;;;;;;29.52;20.42;;;;;;;;;;4933208;29;20514;-70
2022/03/10 05:01:44;;;;;;;27.23;19.25;;;;;;;;;;4926531;29;20486;-70
2022/03/10 05:04:11;;;;;;;27.95;20.52;;;;;;;;;;4944070;29;20048;-70
2022/03/10 05:06:37;;;;;;;24.85;15.48;;;;;;;;;;4942293;29;20036;-70
2022/03/10 05:09:03;;;;;;;23.88;17.77;;;;;;;;;;4944889;29;20008;-76
2022/03/10 05:11:29;;;;;;;22.90;17.40;;;;;;;;;;4937486;29;20036;-71
2022/03/10 05:13:55;;;;;;;25.42;17.65;;;;;;;;;;4915421;29;20036;-77
2022/03/10 05:16:21;;;;;;;22.25;16.42;;;;;;;;;;4944256;29;20039;-70
2022/03/10 05:18:47;;;;;;;18.17;13.02;;;;;;;;;;4943864;29;20031;-70
2022/03/10 05:21:13;;;;;;;20.02;14.73;;;;;;;;;;4949864;29;20051;-70
2022/03/10 05:23:39;;;;;;;21.50;14.93;;;;;;;;;;4951702;29;20437;-70
2022/03/10 05:26:06;;;;;;;18.88;13.07;;;;;;;;;;4949986;29;20040;-70
2022/03/10 05:28:32;;;;;;;19.88;13.93;;;;;;;;;;4950980;29;20041;-70
2022/03/10 05:30:58;;;;;;;17.20;11.80;;;;;;;;;;4950020;29;20031;-71
2022/03/10 05:33:24;;;;;;;17.05;12.43;;;;;;;;;;4949943;29;20024;-73
2022/03/10 05:35:50;;;;;;;13.95;8.95;;;;;;;;;;4951480;29;20022;-70
2022/03/10 05:38:16;;;;;;;12.82;8.85;;;;;;;;;;4950596;29;20032;-70
2022/03/10 05:40:42;;;;;;;14.40;9.18;;;;;;;;;;4949145;29;20003;-70
2022/03/10 05:43:09;;;;;;;14.82;9.70;;;;;;;;;;4941883;29;20486;-75
2022/03/10 05:45:38;;;;;;;13.23;8.98;;;;;;;;;;4939683;29;20071;-73
2022/03/10 05:48:05;;;;;;;16.38;10.60;;;;;;;;;;4933140;29;20098;-74
2022/03/10 05:50:31;;;;;;;14.55;10.10;;;;;;;;;;4934110;29;20111;-73
2022/03/10 05:52:57;;;;;;;15.82;10.50;;;;;;;;;;4933153;29;20035;-69
2022/03/10 05:55:24;;;;;;;13.63;10.30;;;;;;;;;;4934850;29;20107;-74
2022/03/10 05:57:50;;;;;;;16.55;10.43;;;;;;;;;;4935457;29;20028;-72
2022/03/10 06:00:16;;;;;;;14.18;10.10;;;;;;;;;;4918480;29;20082;-72
2022/03/10 06:02:42;;;;;;;14.75;9.63;;;;;;;;;;4933561;29;20016;-73
2022/03/10 06:05:09;;;;;;;15.23;10.52;;;;;;;;;;4932241;29;20039;-70
2022/03/10 06:07:35;;;;;;;16.65;10.93;;;;;;;;;;4937678;29;20042;-74
2022/03/10 06:10:07;;;;;;;15.82;10.13;;;;;;;;;;4939813;29;20001;-78
2022/03/10 06:12:56;;;;;;;10.52;7.13;;;;;;;;;;4946363;29;20482;-77
2022/03/10 06:15:22;;;;;;;16.90;10.57;;;;;;;;;;4920469;29;20488;-75
2022/03/10 06:17:50;;;;;;;15.13;9.77;;;;;;;;;;4933697;29;20032;-74
2022/03/10 06:20:18;;;;;;;16.60;10.02;;;;;;;;;;4935260;29;20411;-71
2022/03/10 06:22:44;;;;;;;18.08;10.95;;;;;;;;;;4936220;29;20386;-72
2022/03/10 06:25:10;;;;;;;18.02;9.65;;;;;;;;;;4948758;29;20047;-71
2022/03/10 06:27:36;;;;;;;18.65;10.75;;;;;;;;;;4951165;29;20044;-71
2022/03/10 06:30:03;;;;;;;14.40;9.52;;;;;;;;;;4931825;29;20023;-69
2022/03/10 06:32:29;;;;;;;15.98;10.43;;;;;;;;;;4951038;28;20035;-74
2022/03/10 06:34:57;;;;;;;14.90;10.38;;;;;;;;;;4948018;29;20031;-74
2022/03/10 06:37:23;;;;;;;19.67;9.85;;;;;;;;;;4951600;29;20024;-75
2022/03/10 06:39:49;;;;;;;14.60;8.73;;;;;;;;;;4950411;29;20523;-72
2022/03/10 06:42:18;;;;;;;24.50;10.20;;;;;;;;;;4948607;29;20525;-76
2022/03/10 06:44:44;;;;;;;17.45;10.85;;;;;;;;;;4949489;29;20069;-72
2022/03/10 06:47:10;;;;;;;12.48;7.72;;;;;;;;;;4943272;29;20020;-72
2022/03/10 06:49:36;;;;;;;19.83;10.25;;;;;;;;;;4941264;29;20032;-77
2022/03/10 06:52:03;;;;;;;28.15;10.90;;;;;;;;;;4943972;29;20375;-76
2022/03/10 06:54:29;;;;;;;14.95;8.68;;;;;;;;;;4939253;29;20027;-72
2022/03/10 06:56:55;;;;;;;16.25;9.60;;;;;;;;;;4940458;29;20028;-74
2022/03/10 06:59:21;;;;;;;13.38;8.88;;;;;;;;;;4937496;29;20038;-73
2022/03/10 07:01:47;;;;;;;15.48;9.15;;;;;;;;;;4935656;29;20106;-72
2022/03/10 07:04:16;;;;;;;13.95;9.13;;;;;;;;;;4935360;29;20032;-72
2022/03/10 07:06:42;;;;;;;16.00;9.13;;;;;;;;;;4930644;29;20032;-73
2022/03/10 07:09:08;;;;;;;15.45;9.77;;;;;;;;;;4939102;29;20082;-72
2022/03/10 07:11:34;;;;;;;14.10;8.50;;;;;;;;;;4939103;29;20027;-73
2022/03/10 07:14:00;;;;;;;13.32;8.35;;;;;;;;;;4938569;29;20063;-74
2022/03/10 07:16:26;;;;;;;12.05;8.50;;;;;;;;;;4937674;29;20094;-75
2022/03/10 07:18:52;;;;;;;13.98;9.15;;;;;;;;;;4938630;29;20099;-75
2022/03/10 07:21:19;;;;;;;13.27;9.55;;;;;;;;;;4929908;29;20131;-74
2022/03/10 07:23:45;;;;;;;12.27;8.65;;;;;;;;;;4919487;29;20023;-74
2022/03/10 07:26:12;;;;;;;14.38;7.60;;;;;;;;;;4935483;29;20130;-73
2022/03/10 07:28:38;;;;;;;18.13;9.05;;;;;;;;;;4942044;29;20091;-73
2022/03/10 07:31:04;;;;;;;14.85;8.93;;;;;;;;;;4939386;29;20038;-74
2022/03/10 07:33:30;;;;;;;14.57;8.80;;;;;;;;;;4936075;29;20032;-73
2022/03/10 07:35:56;;;;;;;14.35;9.05;;;;;;;;;;4939081;29;20536;-71
2022/03/10 07:38:23;;;;;;;14.40;9.40;;;;;;;;;;4939787;29;20402;-75
2022/03/10 07:40:51;;;;;;;12.07;8.55;;;;;;;;;;4943084;29;20035;-71
2022/03/10 07:43:20;;;;;;;14.18;9.38;;;;;;;;;;4940532;29;20552;-77
2022/03/10 07:45:46;;;;;;;15.15;9.15;;;;;;;;;;4920275;29;20103;-73
2022/03/10 07:48:12;;;;;;;12.30;9.07;;;;;;;;;;4938256;29;20038;-73
2022/03/10 07:50:38;;;;;;;12.65;9.27;;;;;;;;;;4937385;29;20440;-72
2022/03/10 07:53:04;;;;;;;12.77;8.88;;;;;;;;;;4938563;29;20125;-71
2022/03/10 07:55:31;;;;;;;14.75;9.93;;;;;;;;;;4938020;29;20028;-73
2022/03/10 07:57:57;;;;;;;13.25;9.15;;;;;;;;;;4937979;29;20024;-70
2022/03/10 08:00:23;;;;;;;20.33;10.13;;;;;;;;;;4938341;29;20032;-71
2022/03/10 08:02:49;;;;;;;13.27;9.10;;;;;;;;;;4937623;29;20090;-72
2022/03/10 08:05:15;;;;;;;15.95;9.10;;;;;;;;;;4939643;29;20107;-77
2022/03/10 08:07:42;;;;;;;14.82;9.30;;;;;;;;;;4938397;29;20481;-73
2022/03/10 08:10:08;;;;;;;15.18;8.98;;;;;;;;;;4939109;29;20027;-70
2022/03/10 08:12:34;;;;;;;14.57;9.23;;;;;;;;;;4938541;29;20020;-72
2022/03/10 08:15:01;;;;;;;13.43;9.15;;;;;;;;;;4936879;29;20028;-74
2022/03/10 08:17:27;;;;;;;11.25;7.88;;;;;;;;;;4936554;29;20020;-73
2022/03/10 08:19:54;;;;;;;16.42;9.48;;;;;;;;;;4937409;29;20471;-72
2022/03/10 08:22:20;;;;;;;13.18;9.05;;;;;;;;;;4937776;29;20474;-72
2022/03/10 08:24:46;;;;;;;16.13;9.25;;;;;;;;;;4934080;29;20398;-72
2022/03/10 08:27:15;;;;;;;15.15;9.10;;;;;;;;;;4921015;29;20487;-75
2022/03/10 08:29:41;;;;;;;14.35;9.13;;;;;;;;;;4948673;29;20480;-71
2022/03/10 08:32:10;;;;;;;13.45;9.40;;;;;;;;;;4938434;29;20075;-72
2022/03/10 08:34:38;;;;;;;14.05;8.63;;;;;;;;;;4939916;29;20103;-73
2022/03/10 08:37:05;;;;;;;12.98;9.23;;;;;;;;;;4937298;29;20024;-72
2022/03/10 08:39:31;;;;;;;14.52;9.40;;;;;;;;;;4939297;29;20382;-71
2022/03/10 08:41:59;;;;;;;13.27;9.80;;;;;;;;;;4941704;29;20055;-71
2022/03/10 08:44:26;;;;;;;13.90;9.93;;;;;;;;;;4943856;29;20051;-73
2022/03/10 08:46:52;;;;;;;14.82;9.65;;;;;;;;;;4942406;29;20040;-70
2022/03/10 08:49:18;;;;;;;13.70;9.18;;;;;;;;;;4937031;29;20028;-68
2022/03/10 08:51:45;;;;;;;16.38;9.98;;;;;;;;;;4938177;29;20086;-73
2022/03/10 08:54:12;;;;;;;13.88;9.25;;;;;;;;;;4940689;29;20024;-71
2022/03/10 08:56:39;;;;;;;12.75;9.80;;;;;;;;;;4941413;29;20486;-72
2022/03/10 08:59:05;;;;;;;12.82;9.10;;;;;;;;;;4923972;29;20556;-71
2022/03/10 09:01:31;;;;;;;13.73;9.10;;;;;;;;;;4937421;29;20034;-71
2022/03/10 09:03:57;;;;;;;13.60;9.20;;;;;;;;;;4944175;29;20048;-70
2022/03/10 09:06:23;;;;;;;12.00;8.43;;;;;;;;;;4942123;29;20046;-70
2022/03/10 09:08:49;;;;;;;11.75;8.57;;;;;;;;;;4937746;29;20024;-70
2022/03/10 09:11:19;;;;;;;15.52;8.73;;;;;;;;;;4939774;28;20039;-69
2022/03/10 09:13:52;;;;;;;15.45;8.88;;;;;;;;;;4937339;29;20102;-69
2022/03/10 09:16:18;;;;;;;12.43;7.97;;;;;;;;;;4943153;29;20090;-69
2022/03/10 09:18:48;;;;;;;11.52;7.72;;;;;;;;;;4934703;29;20027;-68
2022/03/10 09:21:15;;;;;;;12.63;8.57;;;;;;;;;;4937680;29;20119;-69
2022/03/10 09:23:41;;;;;;;14.75;9.38;;;;;;;;;;4942631;29;20031;-72
2022/03/10 09:26:07;;;;;;;14.07;8.27;;;;;;;;;;4941311;29;20050;-76
2022/03/10 09:28:33;;;;;;;12.93;8.57;;;;;;;;;;4938195;29;20046;-74
2022/03/10 09:30:59;;;;;;;12.82;8.27;;;;;;;;;;4935021;29;20034;-77
2022/03/10 09:33:25;;;;;;;12.82;8.48;;;;;;;;;;4935551;29;20031;-72
2022/03/10 09:35:52;;;;;;;19.45;9.18;;;;;;;;;;4933744;29;20385;-72
2022/03/10 09:38:18;;;;;;;17.13;8.95;;;;;;;;;;4934893;29;20435;-71
2022/03/10 09:40:46;;;;;;;16.35;8.20;;;;;;;;;;4934361;29;20083;-73
2022/03/10 09:43:12;;;;;;;14.95;9.15;;;;;;;;;;4931873;29;20412;-69
2022/03/10 09:45:38;;;;;;;14.38;7.90;;;;;;;;;;4936191;29;20031;-72
2022/03/10 09:48:04;;;;;;;11.65;8.18;;;;;;;;;;4935688;29;20441;-73
2022/03/10 09:50:33;;;;;;;13.98;7.55;;;;;;;;;;4935164;29;20047;-70
2022/03/10 09:52:59;;;;;;;14.40;8.30;;;;;;;;;;4935620;29;20065;-71
2022/03/10 09:55:25;;;;;;;12.07;8.13;;;;;;;;;;4935705;29;20394;-72
2022/03/10 09:57:51;;;;;;;9.82;6.28;;;;;;;;;;4933648;29;20465;-73
2022/03/10 10:00:21;;;;;;;11.25;8.02;;;;;;;;;;4936315;29;20386;-70
2022/03/10 10:02:47;;;;;;;11.85;7.82;;;;;;;;;;4933432;29;20481;-73
2022/03/10 10:05:25;;;;;;;14.43;8.20;;;;;;;;;;4935081;29;20040;-70
2022/03/10 10:08:01;;;;;;;17.30;8.40;;;;;;;;;;4929558;29;20035;-71
2022/03/10 10:10:29;;;;;;;13.93;8.30;;;;;;;;;;4925206;29;20051;-71
2022/03/10 10:12:55;;;;;;;14.30;8.27;;;;;;;;;;4941937;29;20069;-70
2022/03/10 10:15:21;;;;;;;10.57;7.88;;;;;;;;;;4941183;29;20028;-69
2022/03/10 10:17:55;;;;;;;12.27;8.02;;;;;;;;;;4942295;29;20031;-68
2022/03/10 10:20:21;;;;;;;12.23;8.40;;;;;;;;;;4940444;29;20048;-68
2022/03/10 10:22:51;;;;;;;12.80;8.45;;;;;;;;;;4938763;29;20042;-72
2022/03/10 10:25:21;;;;;;;13.23;8.73;;;;;;;;;;4941272;29;20035;-72
2022/03/10 10:27:47;;;;;;;14.20;8.40;;;;;;;;;;4949622;29;20115;-74
2022/03/10 10:30:15;;;;;;;15.07;8.38;;;;;;;;;;4936371;29;20016;-71
2022/03/10 10:32:48;;;;;;;13.75;8.40;;;;;;;;;;4941224;29;20026;-73
2022/03/10 10:35:20;;;;;;;;;;;;;;;;;;4933727;29;20442;-73
2022/03/10 10:37:48;;;;;;;13.55;8.57;;;;;;;;;;4937859;29;20005;-71
2022/03/10 10:40:19;;;;;;;16.48;8.00;;;;;;;;;;4932760;29;20028;-74
2022/03/10 10:42:47;;;;;;;13.23;8.35;;;;;;;;;;4941011;29;20028;-72
2022/03/10 10:45:27;;;;;;;15.15;9.07;;;;;;;;;;4939869;29;20036;-70
2022/03/10 10:48:03;;;;;;;17.08;9.30;;;;;;;;;;4942691;29;20056;-77
2022/03/10 10:50:30;;;;;;;14.80;9.27;;;;;;;;;;4919053;29;20044;-70
2022/03/10 10:52:56;;;;;;;16.77;9.13;;;;;;;;;;4941690;29;20054;-72
2022/03/10 10:55:30;;;;;;;14.00;8.65;;;;;;;;;;4940022;29;20087;-73
2022/03/10 10:57:56;;;;;;;13.15;8.90;;;;;;;;;;4942630;29;20027;-73
2022/03/10 11:00:22;;;;;;;13.10;9.40;;;;;;;;;;4936290;29;20044;-71
2022/03/10 11:02:50;;;;;;;12.50;8.40;;;;;;;;;;4941471;29;20055;-73
2022/03/10 11:05:16;;;;;;;14.07;9.85;;;;;;;;;;4940439;29;20070;-74
2022/03/10 11:07:42;;;;;;;14.30;9.65;;;;;;;;;;4940598;29;20035;-70
2022/03/10 11:10:11;;;;;;;13.80;9.40;;;;;;;;;;4941092;29;20030;-72
2022/03/10 11:12:40;;;;;;;14.75;10.48;;;;;;;;;;4936101;29;20031;-70
2022/03/10 11:15:09;;;;;;;16.52;11.25;;;;;;;;;;4938847;29;20031;-72
2022/03/10 11:17:35;;;;;;;12.00;8.60;;;;;;;;;;4931932;29;20059;-72
2022/03/10 11:20:15;;;;;;;14.85;8.68;;;;;;;;;;4932793;29;20111;-71
2022/03/10 11:22:48;;;;;;;15.90;10.45;;;;;;;;;;4937319;29;20498;-77
2022/03/10 11:25:22;;;;;;;16.20;10.63;;;;;;;;;;4937570;29;20406;-75
2022/03/10 11:27:53;;;;;;;17.02;11.43;;;;;;;;;;4936914;29;20048;-74
2022/03/10 11:30:23;;;;;;;17.70;11.65;;;;;;;;;;4933105;29;20496;-73
2022/03/10 11:33:12;;;;;;;15.50;10.57;;;;;;;;;;4936733;29;20071;-70
2022/03/10 11:35:39;;;;;;;14.75;10.95;;;;;;;;;;4934325;29;20039;-71
2022/03/10 11:38:05;;;;;;;18.42;10.50;;;;;;;;;;4923229;29;20048;-73
2022/03/10 11:40:44;;;;;;;14.90;10.02;;;;;;;;;;4934877;29;20047;-70
2022/03/10 11:43:11;;;;;;;18.38;12.13;;;;;;;;;;4934390;29;20376;-73
2022/03/10 11:45:43;;;;;;;17.20;12.63;;;;;;;;;;4937151;29;20437;-75
2022/03/10 11:48:25;;;;;;;17.38;10.25;;;;;;;;;;4936193;29;20027;-72
2022/03/10 11:50:51;;;;;;;15.10;9.52;;;;;;;;;;4929710;29;20032;-71
2022/03/10 11:53:18;;;;;;;19.80;12.82;;;;;;;;;;4937822;29;20035;-68
2022/03/10 11:55:55;;;;;;;18.48;12.32;;;;;;;;;;4934612;29;20028;-69
2022/03/10 11:58:41;;;;;;;18.60;12.85;;;;;;;;;;4930642;29;20020;-71
2022/03/10 12:01:19;;;;;;;18.65;11.05;;;;;;;;;;4933925;29;20028;-71
2022/03/10 12:03:47;;;;;;;19.05;13.18;;;;;;;;;;4937118;29;20490;-72
2022/03/10 12:06:16;;;;;;;20.85;13.88;;;;;;;;;;4931983;29;20028;-73
2022/03/10 12:09:01;;;;;;;13.20;8.10;;;;;;;;;;4919123;29;20028;-71
2022/03/10 12:11:51;;;;;;;14.85;10.73;;;;;;;;;;4932395;29;20103;-72
2022/03/10 12:14:25;;;;;;;16.45;9.02;;;;;;;;;;4935843;29;20398;-72
2022/03/10 12:16:51;;;;;;;15.30;9.57;;;;;;;;;;4934137;29;20027;-71
2022/03/10 12:19:17;;;;;;;15.45;10.52;;;;;;;;;;4939927;29;20039;-71
2022/03/10 12:21:44;;;;;;;13.65;9.35;;;;;;;;;;4935236;29;20051;-70
2022/03/10 12:24:12;;;;;;;17.15;11.27;;;;;;;;;;4944541;29;20020;-70
2022/03/10 12:26:40;;;;;;;18.42;11.02;;;;;;;;;;4933807;29;20048;-69
2022/03/10 12:29:07;;;;;;;16.80;10.38;;;;;;;;;;4936511;29;20040;-73
2022/03/10 12:31:35;;;;;;;18.50;11.80;;;;;;;;;;4934616;29;20046;-71
2022/03/10 12:34:27;;;;;;;18.30;11.68;;;;;;;;;;4936072;29;20354;-69
2022/03/10 12:36:54;;;;;;;17.50;11.75;;;;;;;;;;4932618;29;20036;-71
2022/03/10 12:39:24;;;;;;;16.30;11.43;;;;;;;;;;4930717;29;20035;-75
2022/03/10 12:41:54;;;;;;;14.80;10.43;;;;;;;;;;4937256;29;20038;-70
2022/03/10 12:44:21;;;;;;;17.42;11.85;;;;;;;;;;4934632;29;20164;-70
2022/03/10 12:46:48;;;;;;;14.80;10.82;;;;;;;;;;4936792;29;20043;-73
2022/03/10 12:49:14;;;;;;;15.88;10.30;;;;;;;;;;4939328;29;20027;-71
2022/03/10 12:51:42;;;;;;;18.63;12.02;;;;;;;;;;4937152;29;20489;-76
2022/03/10 12:54:09;;;;;;;15.75;10.85;;;;;;;;;;4935215;29;20050;-75
2022/03/10 12:56:52;;;;;;;16.63;11.95;;;;;;;;;;4936256;29;20035;-73
2022/03/10 12:59:25;;;;;;;13.85;9.68;;;;;;;;;;4937712;29;20047;-76
2022/03/10 13:01:54;;;;;;;18.03;11.30;;;;;;;;;;4935888;29;20032;-72
2022/03/10 13:04:20;;;;;;;16.30;12.13;;;;;;;;;;4922370;29;20027;-74
2022/03/10 13:06:47;;;;;;;16.30;12.45;;;;;;;;;;4932827;29;20074;-68
2022/03/10 13:09:21;;;;;;;14.45;11.27;;;;;;;;;;4940610;29;20024;-71
2022/03/10 13:11:47;;;;;;;18.10;10.77;;;;;;;;;;4942529;29;20043;-67
2022/03/10 13:14:15;;;;;;;17.02;10.40;;;;;;;;;;4929476;29;20028;-70
2022/03/10 13:16:44;;;;;;;13.73;10.52;;;;;;;;;;4938190;29;20055;-67
2022/03/10 13:19:27;;;;;;;16.77;10.85;;;;;;;;;;4942438;29;20469;-67
2022/03/10 13:22:01;;;;;;;20.00;10.95;;;;;;;;;;4941956;29;20497;-68
2022/03/10 13:24:43;;;;;;;13.20;9.88;;;;;;;;;;4942046;29;20035;-68
2022/03/10 13:27:11;;;;;;;15.13;10.52;;;;;;;;;;4931764;29;20051;-69
2022/03/10 13:29:37;;;;;;;15.45;10.40;;;;;;;;;;4946244;29;20042;-68
2022/03/10 13:32:04;;;;;;;13.73;9.20;;;;;;;;;;4945548;29;20031;-68
2022/03/10 13:34:33;;;;;;;12.75;9.30;;;;;;;;;;4947087;29;20063;-68
2022/03/10 13:36:59;;;;;;;12.45;9.32;;;;;;;;;;4946831;29;20027;-70
2022/03/10 13:39:25;;;;;;;18.33;9.57;;;;;;;;;;4936454;29;20082;-68
2022/03/10 13:41:57;;;;;;;13.02;9.35;;;;;;;;;;4946188;28;20083;-69
2022/03/10 13:44:24;;;;;;;15.98;10.52;;;;;;;;;;4928030;29;20504;-69
2022/03/10 13:46:50;;;;;;;15.57;8.10;;;;;;;;;;4956048;29;20039;-70
2022/03/10 13:49:22;;;;;;;12.85;8.57;;;;;;;;;;4946762;28;20040;-71
2022/03/10 13:51:48;;;;;;;11.40;8.38;;;;;;;;;;4932566;29;20015;-72
2022/03/10 13:54:18;;;;;;;12.13;8.57;;;;;;;;;;4923671;29;20044;-71
2022/03/10 13:56:46;;;;;;;13.13;8.32;;;;;;;;;;4938710;29;20020;-74
2022/03/10 13:59:15;;;;;;;10.82;7.72;;;;;;;;;;4942873;29;20034;-73
2022/03/10 14:01:42;;;;;;;13.90;8.57;;;;;;;;;;4936421;29;20135;-71
2022/03/10 14:04:15;;;;;;;9.75;7.07;;;;;;;;;;4941864;29;20036;-73
2022/03/10 14:06:49;;;;;;;9.15;6.85;;;;;;;;;;4946264;29;20032;-71
2022/03/10 14:09:18;;;;;;;11.23;7.00;;;;;;;;;;4941212;29;20035;-71
2022/03/10 14:11:45;;;;;;;9.38;7.18;;;;;;;;;;4945314;29;20027;-70
2022/03/10 14:14:14;;;;;;;13.05;7.38;;;;;;;;;;4943179;29;20039;-70
2022/03/10 14:16:51;;;;;;;10.13;7.47;;;;;;;;;;4927466;29;20022;-70
2022/03/10 14:19:22;;;;;;;10.18;6.72;;;;;;;;;;4937849;29;20099;-71
2022/03/10 14:21:52;;;;;;;10.98;6.90;;;;;;;;;;4943322;29;20043;-71
2022/03/10 14:24:25;;;;;;;11.32;7.28;;;;;;;;;;4952206;28;20015;-70
2022/03/10 14:26:52;;;;;;;;;;;;;;;;;;4953118;28;20067;-70
2022/03/10 14:29:20;;;;;;;9.90;7.05;;;;;;;;;;4934861;29;19982;-70
2022/03/10 14:31:46;;;;;;;11.90;7.60;;;;;;;;;;4968574;23;20070;-70
2022/03/10 14:34:16;;;;;;;10.75;7.13;;;;;;;;;;4935750;28;20443;-70